createdAt,value
2018-01-16T00:00:30.842Z,5.60
2018-01-16T00:02:59.032Z,5.60
2018-01-16T00:05:27.426Z,5.70
2018-01-16T00:07:56.370Z,5.70
2018-01-16T00:10:24.548Z,5.70
2018-01-16T00:12:53.002Z,5.70
2018-01-16T00:15:21.185Z,5.70
2018-01-16T00:17:49.329Z,5.80
2018-01-16T00:20:17.654Z,5.80
2018-01-16T00:22:45.827Z,5.80
2018-01-16T00:25:13.972Z,5.80
2018-01-16T00:27:42.132Z,5.80
2018-01-16T00:30:10.310Z,5.80
2018-01-16T00:32:39.212Z,5.80
2018-01-16T00:35:07.369Z,5.80
2018-01-16T00:37:35.604Z,5.80
2018-01-16T00:40:07.698Z,5.80
2018-01-16T00:42:36.621Z,5.90
2018-01-16T00:45:05.085Z,5.90
2018-01-16T00:47:33.262Z,5.80
2018-01-16T00:50:02.512Z,5.80
2018-01-16T00:52:30.657Z,5.80
2018-01-16T00:54:58.837Z,5.90
2018-01-16T00:57:27.101Z,5.90
2018-01-16T00:59:56.213Z,5.90
2018-01-16T01:02:25.278Z,5.90
2018-01-16T01:04:53.431Z,6.00
2018-01-16T01:07:22.604Z,6.00
2018-01-16T01:09:59.022Z,6.00
2018-01-16T01:12:27.216Z,6.10
2018-01-16T01:14:55.485Z,6.10
2018-01-16T01:17:23.665Z,6.20
2018-01-16T01:19:59.335Z,6.20
2018-01-16T01:22:27.506Z,6.10
2018-01-16T01:25:02.313Z,6.20
2018-01-16T01:27:30.522Z,6.20
2018-01-16T01:30:05.082Z,6.30
2018-01-16T01:32:34.613Z,6.30
2018-01-16T01:35:06.734Z,6.30
2018-01-16T01:37:35.739Z,6.30
2018-01-16T01:40:04.385Z,6.30
2018-01-16T01:42:32.593Z,6.30
2018-01-16T01:45:01.556Z,6.30
2018-01-16T01:47:29.944Z,6.30
2018-01-16T01:50:03.522Z,6.20
2018-01-16T01:52:31.961Z,6.30
2018-01-16T01:55:00.237Z,6.30
2018-01-16T01:57:28.592Z,6.30
2018-01-16T01:59:57.744Z,6.30
2018-01-16T02:02:25.930Z,6.30
2018-01-16T02:04:55.060Z,6.30
2018-01-16T02:07:24.237Z,6.30
2018-01-16T02:09:56.073Z,6.30
2018-01-16T02:12:24.332Z,6.30
2018-01-16T02:14:52.555Z,6.30
2018-01-16T02:17:20.800Z,6.30
2018-01-16T02:19:48.962Z,6.30
2018-01-16T02:22:17.208Z,6.30
2018-01-16T02:24:45.409Z,6.30
2018-01-16T02:27:13.586Z,6.30
2018-01-16T02:29:41.775Z,6.40
2018-01-16T02:32:10.381Z,6.40
2018-01-16T02:34:39.550Z,6.40
2018-01-16T02:37:07.742Z,6.50
2018-01-16T02:39:36.013Z,6.60
2018-01-16T02:42:04.898Z,6.70
2018-01-16T02:44:33.338Z,6.60
2018-01-16T02:47:01.985Z,6.80
2018-01-16T02:49:30.267Z,6.80
2018-01-16T02:51:58.457Z,6.80
2018-01-16T02:54:27.484Z,7.00
2018-01-16T02:56:55.641Z,6.90
2018-01-16T02:59:23.838Z,6.90
2018-01-16T03:01:52.016Z,6.90
2018-01-16T03:04:20.191Z,6.80
2018-01-16T03:06:48.341Z,6.80
2018-01-16T03:09:16.517Z,6.70
2018-01-16T03:11:44.906Z,6.70
2018-01-16T03:14:13.664Z,6.80
2018-01-16T03:16:41.855Z,6.80
2018-01-16T03:19:11.993Z,6.80
2018-01-16T03:21:47.200Z,6.80
2018-01-16T03:24:16.128Z,6.80
2018-01-16T03:26:44.414Z,6.80
2018-01-16T03:29:12.560Z,6.90
2018-01-16T03:31:40.844Z,6.80
2018-01-16T03:34:09.012Z,6.90
2018-01-16T03:36:37.186Z,6.90
2018-01-16T03:39:05.625Z,6.90
2018-01-16T03:41:38.656Z,6.90
2018-01-16T03:44:06.827Z,6.90
2018-01-16T03:46:34.990Z,6.80
2018-01-16T03:49:07.580Z,6.80
2018-01-16T03:51:35.745Z,6.70
2018-01-16T03:54:03.902Z,6.70
2018-01-16T03:56:32.086Z,6.60
2018-01-16T03:59:00.282Z,6.60
2018-01-16T04:01:32.344Z,6.50
2018-01-16T04:04:00.621Z,6.50
2018-01-16T04:06:28.777Z,6.50
2018-01-16T04:08:57.679Z,6.50
2018-01-16T04:11:30.371Z,6.40
2018-01-16T04:13:58.645Z,6.40
2018-01-16T04:16:26.916Z,6.50
2018-01-16T04:18:55.045Z,6.50
2018-01-16T04:21:23.377Z,6.40
2018-01-16T04:23:52.173Z,6.40
2018-01-16T04:26:20.328Z,6.50
2018-01-16T04:28:49.467Z,6.50
2018-01-16T04:31:17.711Z,6.50
2018-01-16T04:33:45.891Z,6.50
2018-01-16T04:36:14.036Z,6.60
2018-01-16T04:38:42.958Z,6.60
2018-01-16T04:41:12.135Z,6.50
2018-01-16T04:43:40.831Z,6.60
2018-01-16T04:46:08.980Z,6.60
2018-01-16T04:48:37.904Z,6.70
2018-01-16T04:51:13.649Z,6.70
2018-01-16T04:53:41.813Z,6.70
2018-01-16T04:56:09.976Z,6.60
2018-01-16T04:58:38.409Z,6.60
2018-01-16T05:01:10.920Z,6.40
2018-01-16T05:03:39.873Z,6.50
2018-01-16T05:06:11.302Z,6.40
2018-01-16T05:08:39.442Z,6.50
2018-01-16T05:11:09.564Z,6.40
2018-01-16T05:13:38.482Z,6.30
2018-01-16T05:16:06.637Z,6.30
2018-01-16T05:18:34.849Z,6.30
2018-01-16T05:21:13.323Z,6.30
2018-01-16T05:23:42.330Z,6.20
2018-01-16T05:26:11.456Z,6.20
2018-01-16T05:28:39.637Z,6.10
2018-01-16T05:31:11.739Z,6.00
2018-01-16T05:33:40.751Z,6.10
2018-01-16T05:36:09.044Z,6.10
2018-01-16T05:38:37.924Z,6.20
2018-01-16T05:41:10.306Z,6.30
2018-01-16T05:43:38.470Z,6.30
2018-01-16T05:46:06.686Z,6.40
2018-01-16T05:48:34.814Z,6.40
2018-01-16T05:51:03.817Z,6.40
2018-01-16T05:53:31.988Z,6.40
2018-01-16T05:56:00.173Z,6.40
2018-01-16T05:58:28.333Z,6.30
2018-01-16T06:00:56.606Z,6.40
2018-01-16T06:03:25.474Z,6.40
2018-01-16T06:05:54.472Z,6.40
2018-01-16T06:08:22.620Z,6.30
2018-01-16T06:10:50.770Z,6.30
2018-01-16T06:13:19.145Z,6.30
2018-01-16T06:15:47.296Z,6.30
2018-01-16T06:18:19.292Z,6.30
2018-01-16T06:20:48.557Z,6.30
2018-01-16T06:23:16.748Z,6.30
2018-01-16T06:25:44.997Z,6.30
2018-01-16T06:28:13.568Z,6.20
2018-01-16T06:30:47.233Z,6.20
2018-01-16T06:33:15.397Z,6.20
2018-01-16T06:35:43.567Z,6.20
2018-01-16T06:38:11.716Z,6.20
2018-01-16T06:40:40.722Z,6.20
2018-01-16T06:43:08.883Z,6.20
2018-01-16T06:45:37.061Z,6.20
2018-01-16T06:48:05.206Z,6.20
2018-01-16T06:50:33.426Z,6.20
2018-01-16T06:53:01.581Z,6.20
2018-01-16T06:55:29.736Z,6.30
2018-01-16T06:57:57.901Z,6.30
2018-01-16T07:00:26.104Z,6.30
2018-01-16T07:02:54.251Z,6.30
2018-01-16T07:05:22.400Z,6.30
2018-01-16T07:07:50.603Z,6.30
2018-01-16T07:10:18.964Z,6.30
2018-01-16T07:12:47.165Z,6.20
2018-01-16T07:15:15.554Z,6.20
2018-01-16T07:17:44.466Z,6.20
2018-01-16T07:20:14.995Z,6.20
2018-01-16T07:22:43.139Z,6.30
2018-01-16T07:25:11.920Z,6.30
2018-01-16T07:27:40.074Z,6.40
2018-01-16T07:30:08.290Z,6.40
2018-01-16T07:32:37.392Z,6.50
2018-01-16T07:35:05.539Z,6.50
2018-01-16T07:37:34.473Z,6.60
2018-01-16T07:40:09.255Z,6.60
2018-01-16T07:42:38.289Z,6.60
2018-01-16T07:45:08.601Z,6.70
2018-01-16T07:47:37.619Z,6.60
2018-01-16T07:50:10.745Z,6.70
2018-01-16T07:52:39.005Z,6.60
2018-01-16T07:55:07.180Z,6.50
2018-01-16T07:57:35.348Z,6.50
2018-01-16T08:00:04.391Z,6.50
2018-01-16T08:02:33.311Z,6.40
2018-01-16T08:05:01.464Z,6.40
2018-01-16T08:07:30.393Z,6.50
2018-01-16T08:09:58.661Z,6.50
2018-01-16T08:12:26.824Z,6.40
2018-01-16T08:14:55.035Z,6.30
2018-01-16T08:17:23.240Z,6.30
2018-01-16T08:19:57.602Z,6.30
2018-01-16T08:22:30.149Z,6.30
2018-01-16T08:24:58.313Z,6.20
2018-01-16T08:27:30.823Z,6.10
2018-01-16T08:29:59.064Z,6.00
2018-01-16T08:32:27.222Z,6.10
2018-01-16T08:34:56.290Z,6.10
2018-01-16T08:37:24.457Z,6.10
2018-01-16T08:39:59.434Z,6.20
2018-01-16T08:42:28.035Z,6.20
2018-01-16T08:44:56.370Z,6.20
2018-01-16T08:47:24.528Z,6.30
2018-01-16T08:49:54.701Z,6.40
2018-01-16T08:52:23.655Z,6.50
2018-01-16T08:54:51.816Z,6.50
2018-01-16T08:57:19.961Z,6.60
2018-01-16T08:59:48.224Z,6.60
2018-01-16T09:02:17.917Z,6.80
2018-01-16T09:04:46.076Z,6.80
2018-01-16T09:07:14.222Z,6.70
2018-01-16T09:09:42.368Z,6.60
2018-01-16T09:12:10.552Z,6.70
2018-01-16T09:14:39.708Z,6.70
2018-01-16T09:17:07.850Z,6.70
2018-01-16T09:19:36.022Z,6.70
2018-01-16T09:22:04.234Z,6.60
2018-01-16T09:24:33.252Z,6.70
2018-01-16T09:27:01.409Z,6.70
2018-01-16T09:29:29.567Z,6.70
2018-01-16T09:31:58.493Z,6.80
2018-01-16T09:34:26.656Z,6.70
2018-01-16T09:36:54.800Z,6.80
2018-01-16T09:39:22.955Z,6.80
2018-01-16T09:41:51.101Z,6.90
2018-01-16T09:44:19.253Z,6.90
2018-01-16T09:46:47.402Z,6.80
2018-01-16T09:49:15.546Z,6.80
2018-01-16T09:51:46.764Z,6.90
2018-01-16T09:54:14.912Z,6.90
2018-01-16T09:56:45.140Z,7.10
2018-01-16T09:59:13.285Z,7.10
2018-01-16T10:01:47.547Z,7.20
2018-01-16T10:04:19.386Z,7.30
2018-01-16T10:06:47.559Z,7.40
2018-01-16T10:09:15.736Z,7.40
2018-01-16T10:11:43.996Z,7.50
2018-01-16T10:14:12.256Z,7.50
2018-01-16T10:16:40.399Z,7.40
2018-01-16T10:19:08.550Z,7.40
2018-01-16T10:21:40.186Z,7.50
2018-01-16T10:24:08.344Z,7.60
2018-01-16T10:26:36.554Z,7.50
2018-01-16T10:29:04.739Z,7.30
2018-01-16T10:31:32.926Z,7.30
2018-01-16T10:34:01.915Z,7.10
2018-01-16T10:36:30.079Z,7.10
2018-01-16T10:38:58.253Z,7.20
2018-01-16T10:41:26.397Z,7.30
2018-01-16T10:43:56.415Z,7.40
2018-01-16T10:46:25.323Z,7.30
2018-01-16T10:48:53.485Z,7.30
2018-01-16T10:51:21.764Z,7.10
2018-01-16T10:53:49.908Z,6.90
2018-01-16T10:56:18.842Z,6.80
2018-01-16T10:58:47.882Z,6.80
2018-01-16T11:01:16.093Z,6.80
2018-01-16T11:03:44.287Z,6.90
2018-01-16T11:06:12.440Z,7.00
2018-01-16T11:08:41.457Z,7.30
2018-01-16T11:11:09.615Z,7.30
2018-01-16T11:13:37.773Z,7.50
2018-01-16T11:16:06.695Z,7.40
2018-01-16T11:18:34.879Z,7.40
2018-01-16T11:21:03.130Z,7.30
2018-01-16T11:23:32.045Z,7.40
2018-01-16T11:26:00.205Z,7.40
2018-01-16T11:28:28.369Z,7.50
2018-01-16T11:30:56.628Z,7.40
2018-01-16T11:33:24.848Z,7.30
2018-01-16T11:35:53.098Z,7.30
2018-01-16T11:38:21.234Z,7.40
2018-01-16T11:40:59.270Z,7.20
2018-01-16T11:43:28.254Z,7.00
2018-01-16T11:45:58.073Z,6.80
2018-01-16T11:48:27.612Z,6.60
2018-01-16T11:51:08.620Z,6.60
2018-01-16T11:53:36.829Z,6.60
2018-01-16T11:56:05.012Z,6.60
2018-01-16T11:58:33.214Z,6.50
2018-01-16T12:01:04.825Z,6.50
2018-01-16T12:03:38.460Z,6.50
2018-01-16T12:06:06.611Z,6.40
2018-01-16T12:08:38.358Z,6.50
2018-01-16T12:11:07.354Z,6.60
2018-01-16T12:13:36.443Z,6.60
2018-01-16T12:16:05.370Z,6.70
2018-01-16T12:18:33.526Z,6.70
2018-01-16T12:21:01.722Z,6.60
2018-01-16T12:23:29.874Z,6.60
2018-01-16T12:25:58.054Z,6.60
2018-01-16T12:28:26.806Z,6.50
2018-01-16T12:30:56.118Z,6.40
2018-01-16T12:33:25.365Z,6.20
2018-01-16T12:35:53.865Z,6.20
2018-01-16T12:38:22.161Z,6.20
2018-01-16T12:40:51.813Z,6.30
2018-01-16T12:43:20.191Z,6.30
2018-01-16T12:45:48.936Z,6.30
2018-01-16T12:48:18.757Z,6.20
2018-01-16T12:50:47.597Z,5.70
2018-01-16T12:53:16.511Z,5.30
2018-01-16T12:55:44.822Z,4.90
2018-01-16T12:58:14.457Z,4.50
2018-01-16T13:00:42.728Z,4.50
2018-01-16T13:03:10.958Z,4.50
2018-01-16T13:05:39.949Z,4.50
2018-01-16T13:08:08.157Z,4.60
2018-01-16T13:10:37.403Z,4.60
2018-01-16T13:13:05.545Z,4.70
2018-01-16T13:15:34.489Z,4.80
2018-01-16T13:18:02.641Z,4.90
2018-01-16T13:20:37.706Z,5.00
2018-01-16T13:23:09.505Z,5.00
2018-01-16T13:25:38.762Z,5.10
2018-01-16T13:28:06.920Z,5.20
2018-01-16T13:30:38.825Z,5.30
2018-01-16T13:33:07.754Z,5.30
2018-01-16T13:35:35.993Z,5.20
2018-01-16T13:38:04.164Z,5.20
2018-01-16T13:40:33.169Z,5.20
2018-01-16T13:43:01.390Z,5.20
2018-01-16T13:45:29.552Z,5.10
2018-01-16T13:47:57.696Z,5.10
2018-01-16T13:50:27.366Z,5.10
2018-01-16T13:52:55.505Z,5.10
2018-01-16T13:55:23.663Z,5.20
2018-01-16T13:57:51.807Z,5.40
2018-01-16T14:00:20.723Z,5.60
2018-01-16T14:02:48.876Z,5.60
2018-01-16T14:05:17.031Z,5.60
2018-01-16T14:07:45.208Z,5.50
2018-01-16T14:10:13.350Z,5.40
2018-01-16T14:12:41.510Z,5.40
2018-01-16T14:15:09.892Z,5.40
2018-01-16T14:17:38.036Z,5.50
2018-01-16T14:20:07.060Z,5.30
2018-01-16T14:22:35.234Z,5.30
2018-01-16T14:25:03.443Z,5.30
2018-01-16T14:27:31.596Z,5.30
2018-01-16T14:30:02.996Z,5.20
2018-01-16T14:32:31.691Z,5.20
2018-01-16T14:35:00.593Z,5.00
2018-01-16T14:37:28.761Z,5.00
2018-01-16T14:39:56.945Z,4.80
2018-01-16T14:42:25.090Z,4.60
2018-01-16T14:44:54.050Z,4.50
2018-01-16T14:47:23.589Z,4.50
2018-01-16T14:49:55.974Z,4.40
2018-01-16T14:52:24.363Z,4.40
2018-01-16T14:54:54.570Z,4.40
2018-01-16T14:57:22.725Z,4.30
2018-01-16T14:59:51.781Z,4.30
2018-01-16T15:02:20.797Z,4.30
2018-01-16T15:04:48.948Z,4.30
2018-01-16T15:07:17.110Z,4.30
2018-01-16T15:09:48.726Z,4.20
2018-01-16T15:12:16.905Z,4.20
2018-01-16T15:14:45.935Z,4.00
2018-01-16T15:17:14.698Z,4.00
2018-01-16T15:19:42.882Z,4.10
2018-01-16T15:22:11.949Z,4.00
2018-01-16T15:24:40.123Z,4.10
2018-01-16T15:27:09.066Z,4.00
2018-01-16T15:29:37.272Z,4.00
2018-01-16T15:32:06.245Z,4.00
2018-01-16T15:34:34.398Z,3.90
2018-01-16T15:37:02.573Z,3.80
2018-01-16T15:39:31.495Z,3.70
2018-01-16T15:41:59.649Z,3.70
2018-01-16T15:44:27.790Z,3.80
2018-01-16T15:46:56.012Z,3.90
2018-01-16T15:49:24.163Z,3.90
2018-01-16T15:51:52.455Z,3.90
2018-01-16T15:54:20.939Z,3.90
2018-01-16T15:56:49.093Z,3.90
2018-01-16T15:59:17.241Z,3.90
2018-01-16T16:01:45.384Z,3.80
2018-01-16T16:04:13.571Z,3.70
2018-01-16T16:06:43.479Z,3.60
2018-01-16T16:09:11.700Z,3.50
2018-01-16T16:11:39.949Z,3.50
2018-01-16T16:14:08.217Z,3.60
2018-01-16T16:16:36.429Z,3.60
2018-01-16T16:19:04.634Z,3.60
2018-01-16T16:21:33.072Z,3.60
2018-01-16T16:24:01.224Z,3.60
2018-01-16T16:26:30.258Z,3.70
2018-01-16T16:28:58.486Z,3.70
2018-01-16T16:31:33.847Z,3.70
2018-01-16T16:34:07.792Z,3.80
2018-01-16T16:36:35.967Z,3.80
2018-01-16T16:39:04.161Z,3.80
2018-01-16T16:41:32.793Z,3.90
2018-01-16T16:44:00.987Z,3.90
2018-01-16T16:46:29.338Z,3.90
2018-01-16T16:48:57.536Z,4.00
2018-01-16T16:51:27.767Z,4.00
2018-01-16T16:53:56.707Z,4.00
2018-01-16T16:56:25.740Z,4.10
2018-01-16T16:58:54.817Z,4.10
2018-01-16T17:01:23.168Z,4.10
2018-01-16T17:03:51.576Z,4.10
2018-01-16T17:06:19.775Z,4.20
2018-01-16T17:08:48.025Z,4.20
2018-01-16T17:11:18.273Z,4.30
2018-01-16T17:13:46.968Z,4.20
2018-01-16T17:16:15.242Z,4.30
2018-01-16T17:18:43.506Z,4.30
2018-01-16T17:21:14.741Z,4.30
2018-01-16T17:23:43.251Z,4.30
2018-01-16T17:26:11.433Z,4.30
2018-01-16T17:28:39.656Z,4.30
2018-01-16T17:31:10.234Z,4.40
2018-01-16T17:33:38.567Z,4.50
2018-01-16T17:36:07.000Z,4.50
2018-01-16T17:38:35.370Z,4.50
2018-01-16T17:41:03.698Z,4.50
2018-01-16T17:43:31.905Z,4.50
2018-01-16T17:46:00.899Z,4.50
2018-01-16T17:48:29.082Z,4.50
2018-01-16T17:50:58.260Z,4.40
2018-01-16T17:53:26.422Z,4.30
2018-01-16T17:55:54.580Z,4.30
2018-01-16T17:58:22.792Z,4.20
2018-01-16T18:00:54.663Z,4.10
2018-01-16T18:03:23.198Z,4.20
2018-01-16T18:05:56.499Z,4.30
2018-01-16T18:08:25.513Z,4.30
2018-01-16T18:11:00.925Z,4.30
2018-01-16T18:13:33.092Z,4.30
2018-01-16T18:16:02.403Z,4.20
2018-01-16T18:18:31.354Z,4.20
2018-01-16T18:21:01.552Z,4.10
2018-01-16T18:23:31.060Z,4.20
2018-01-16T18:25:59.393Z,4.20
2018-01-16T18:28:28.357Z,4.30
2018-01-16T18:30:58.566Z,4.30
2018-01-16T18:33:28.463Z,4.30
2018-01-16T18:36:00.119Z,4.40
2018-01-16T18:38:28.807Z,4.40
2018-01-16T18:40:59.035Z,4.50
2018-01-16T18:46:08.629Z,4.40
2018-01-16T18:48:42.583Z,4.40
2018-01-16T18:51:15.260Z,4.30
2018-01-16T18:53:43.907Z,4.10
2018-01-16T18:56:12.486Z,4.00
2018-01-16T18:58:40.696Z,3.90
2018-01-16T19:01:09.006Z,3.80
2018-01-16T19:03:37.988Z,3.80
2018-01-16T19:06:06.846Z,3.70
2018-01-16T19:08:35.989Z,3.60
2018-01-16T19:11:04.228Z,3.60
2018-01-16T19:13:32.424Z,3.60
2018-01-16T19:16:03.072Z,3.60
2018-01-16T19:18:31.460Z,3.70
2018-01-16T19:20:59.707Z,3.60
2018-01-16T19:23:28.587Z,3.60
2018-01-16T19:25:56.779Z,3.70
2018-01-16T19:28:26.024Z,3.80
2018-01-16T19:30:54.216Z,3.70
2018-01-16T19:33:22.370Z,3.80
2018-01-16T19:35:50.610Z,3.80
2018-01-16T19:38:18.850Z,3.70
2018-01-16T19:40:47.557Z,3.70
2018-01-16T19:43:37.610Z,3.70
2018-01-16T19:49:00.202Z,3.80
2018-01-16T19:51:31.649Z,3.90
2018-01-16T19:54:01.597Z,3.90
2018-01-16T19:56:29.897Z,3.90
2018-01-16T19:58:58.070Z,4.00
2018-01-16T20:01:27.634Z,3.90
2018-01-16T20:03:55.917Z,3.80
2018-01-16T20:06:25.735Z,3.80
2018-01-16T20:08:54.477Z,3.80
2018-01-16T20:11:30.502Z,3.70
2018-01-16T20:14:00.595Z,3.70
2018-01-16T20:19:07.549Z,3.60
2018-01-16T20:21:41.879Z,3.60
2018-01-16T20:32:01.531Z,3.60
2018-01-16T20:48:45.454Z,3.30
2018-01-16T20:51:18.670Z,3.30
2018-01-16T20:54:01.304Z,3.30
2018-01-16T20:56:31.337Z,3.30
2018-01-16T20:59:00.122Z,3.30
2018-01-16T21:01:28.505Z,3.30
2018-01-16T21:03:57.499Z,3.30
2018-01-16T21:06:27.397Z,3.40
2018-01-16T21:08:55.622Z,3.40
2018-01-16T21:11:24.851Z,3.40
2018-01-16T21:13:53.135Z,3.40
2018-01-16T21:16:21.362Z,3.40
2018-01-16T21:18:49.580Z,3.50
2018-01-16T21:21:17.765Z,3.50
2018-01-16T21:23:46.613Z,3.50
2018-01-16T21:26:15.547Z,3.60
2018-01-16T21:28:44.696Z,3.60
2018-01-16T21:31:16.912Z,3.50
2018-01-16T21:33:45.138Z,3.50
2018-01-16T21:36:15.251Z,3.60
2018-01-16T21:38:44.233Z,3.60
2018-01-16T21:41:20.360Z,3.60
2018-01-16T21:43:52.110Z,3.60
2018-01-16T21:46:21.429Z,3.60
2018-01-16T21:48:49.844Z,3.60
2018-01-16T21:51:18.197Z,3.70
2018-01-16T21:53:46.351Z,3.70
2018-01-16T21:56:15.181Z,3.70
2018-01-16T21:58:44.225Z,3.70
2018-01-16T22:01:12.548Z,3.60
2018-01-16T22:03:42.200Z,3.50
2018-01-16T22:06:10.381Z,3.50
2018-01-16T22:08:39.305Z,3.40
2018-01-16T22:11:09.683Z,3.40
2018-01-16T22:13:37.821Z,3.40
2018-01-16T22:16:05.996Z,3.30
2018-01-16T22:18:34.154Z,3.20
2018-01-16T22:21:03.318Z,3.20
2018-01-16T22:23:31.682Z,3.20
2018-01-16T22:25:59.957Z,3.20
2018-01-16T22:28:28.099Z,3.20
2018-01-16T22:30:57.114Z,3.10
2018-01-16T22:33:25.500Z,3.10
2018-01-16T22:35:53.657Z,3.10
2018-01-16T22:38:21.818Z,3.20
2018-01-16T22:40:50.935Z,3.10
2018-01-16T22:43:19.096Z,3.10
2018-01-16T22:45:47.300Z,3.00
2018-01-16T22:48:16.270Z,3.00
2018-01-16T22:50:44.555Z,3.00
2018-01-16T22:53:12.705Z,3.00
2018-01-16T22:55:40.857Z,3.10
2018-01-16T22:58:09.050Z,3.10
2018-01-16T23:00:37.250Z,3.20
2018-01-16T23:03:05.431Z,3.20
2018-01-16T23:05:33.577Z,3.30
2018-01-16T23:08:01.726Z,3.30
2018-01-16T23:10:29.941Z,3.40
2018-01-16T23:12:58.126Z,3.50
2018-01-16T23:15:26.276Z,3.50
2018-01-16T23:17:54.464Z,3.60
2018-01-16T23:20:23.508Z,3.70
2018-01-16T23:22:51.685Z,3.70
2018-01-16T23:25:19.840Z,3.80
2018-01-16T23:27:47.993Z,3.80
2018-01-16T23:30:17.234Z,3.80
2018-01-16T23:32:45.387Z,3.80
2018-01-16T23:35:14.466Z,3.90
2018-01-16T23:37:42.624Z,3.90
2018-01-16T23:40:11.197Z,3.80
2018-01-16T23:42:40.135Z,3.90
2018-01-16T23:45:08.670Z,3.90
2018-01-16T23:47:37.825Z,3.90
2018-01-16T23:50:09.342Z,3.90
2018-01-16T23:52:37.513Z,4.00
2018-01-16T23:55:06.708Z,4.00
2018-01-16T23:57:34.958Z,4.00
